createdAt,value
2022-11-08T00:02:22.083Z,3.17
2022-11-08T00:04:48.836Z,5.30
2022-11-08T00:07:33.958Z,4.43
2022-11-08T00:10:19.146Z,6.65
2022-11-08T00:13:04.520Z,6.05
2022-11-08T00:15:34.900Z,5.78
2022-11-08T00:18:01.562Z,6.30
2022-11-08T00:20:28.362Z,6.20
2022-11-08T00:22:55.159Z,7.80
2022-11-08T00:25:21.785Z,5.05
2022-11-08T00:27:48.306Z,3.75
2022-11-08T00:30:14.961Z,3.20
2022-11-08T00:32:41.662Z,2.33
2022-11-08T00:35:08.617Z,2.72
2022-11-08T00:37:35.268Z,2.30
2022-11-08T00:40:01.983Z,2.30
2022-11-08T00:42:28.731Z,1.97
2022-11-08T00:44:55.364Z,3.13
2022-11-08T00:47:22.016Z,2.85
2022-11-08T00:49:48.633Z,4.28
2022-11-08T00:52:15.239Z,7.45
2022-11-08T00:54:41.807Z,2.93
2022-11-08T00:57:08.420Z,10.32
2022-11-08T00:59:35.138Z,8.00
2022-11-08T01:02:01.850Z,5.50
2022-11-08T01:04:28.606Z,4.38
2022-11-08T01:06:55.229Z,6.30
2022-11-08T01:09:21.878Z,4.78
2022-11-08T01:11:50.004Z,10.00
2022-11-08T01:14:16.528Z,7.15
2022-11-08T01:16:43.393Z,10.10
2022-11-08T01:19:10.376Z,6.23
2022-11-08T01:21:37.060Z,4.25
2022-11-08T01:24:03.902Z,5.15
2022-11-08T01:26:30.549Z,3.03
2022-11-08T01:28:57.764Z,2.78
2022-11-08T01:31:27.158Z,2.37
2022-11-08T01:33:54.469Z,2.22
2022-11-08T01:36:24.154Z,2.05
2022-11-08T01:38:50.999Z,2.30
2022-11-08T01:41:20.198Z,2.33
2022-11-08T01:43:48.782Z,2.97
2022-11-08T01:46:18.029Z,1.48
2022-11-08T01:49:08.984Z,2.13
2022-11-08T01:52:01.580Z,1.30
2022-11-08T01:54:40.234Z,1.52
2022-11-08T01:57:14.578Z,1.60
2022-11-08T01:59:44.717Z,1.83
2022-11-08T02:02:12.518Z,1.38
2022-11-08T02:04:41.721Z,1.50
2022-11-08T02:07:10.963Z,2.17
2022-11-08T02:09:40.510Z,1.23
2022-11-08T02:12:08.336Z,1.77
2022-11-08T02:14:36.745Z,2.78
2022-11-08T02:17:03.853Z,3.58
2022-11-08T02:19:47.171Z,1.80
2022-11-08T02:22:28.509Z,1.87
2022-11-08T02:24:58.439Z,2.47
2022-11-08T02:27:25.860Z,3.72
2022-11-08T02:29:56.600Z,3.20
2022-11-08T02:32:23.760Z,4.03
2022-11-08T02:34:55.547Z,4.93
2022-11-08T02:37:23.943Z,2.60
2022-11-08T02:39:50.520Z,4.50
2022-11-08T02:42:19.545Z,9.15
2022-11-08T02:44:47.015Z,5.38
2022-11-08T02:47:14.367Z,2.30
2022-11-08T02:49:41.101Z,1.92
2022-11-08T02:52:08.199Z,1.75
2022-11-08T02:54:35.016Z,1.83
2022-11-08T02:57:01.518Z,1.70
2022-11-08T02:59:28.076Z,1.63
2022-11-08T03:01:54.721Z,2.10
2022-11-08T03:04:21.349Z,1.45
2022-11-08T03:06:47.849Z,2.25
2022-11-08T03:09:14.562Z,1.58
2022-11-08T03:11:41.138Z,1.40
2022-11-08T03:14:08.125Z,1.35
2022-11-08T03:16:34.686Z,2.35
2022-11-08T03:19:01.160Z,2.05
2022-11-08T03:21:27.877Z,3.45
2022-11-08T03:23:54.366Z,2.10
2022-11-08T03:26:20.981Z,4.65
2022-11-08T03:28:47.646Z,2.67
2022-11-08T03:31:14.359Z,3.08
2022-11-08T03:33:41.070Z,2.60
2022-11-08T03:36:07.997Z,1.97
2022-11-08T03:38:34.464Z,2.50
2022-11-08T03:41:01.135Z,2.75
2022-11-08T03:43:27.586Z,2.40
2022-11-08T03:45:54.041Z,2.90
2022-11-08T03:48:20.941Z,1.57
2022-11-08T03:50:47.611Z,1.70
2022-11-08T03:53:14.176Z,1.27
2022-11-08T03:55:40.763Z,1.40
2022-11-08T03:58:07.391Z,1.40
2022-11-08T04:00:33.943Z,1.00
2022-11-08T04:03:03.162Z,1.02
2022-11-08T04:05:32.493Z,1.40
2022-11-08T04:08:00.691Z,0.90
2022-11-08T04:10:27.595Z,1.20
2022-11-08T04:13:12.948Z,0.73
2022-11-08T04:15:39.650Z,1.25
2022-11-08T04:18:24.883Z,0.82
2022-11-08T04:21:09.762Z,0.90
2022-11-08T04:23:37.667Z,2.10
2022-11-08T04:26:07.948Z,1.17
2022-11-08T04:28:36.497Z,0.82
2022-11-08T04:31:05.939Z,1.05
2022-11-08T04:33:32.598Z,1.05
2022-11-08T04:36:06.856Z,1.10
2022-11-08T04:38:33.630Z,2.43
2022-11-08T04:41:05.105Z,1.38
2022-11-08T04:43:32.977Z,2.00
2022-11-08T04:46:04.534Z,0.80
2022-11-08T04:48:31.557Z,1.70
2022-11-08T04:51:10.189Z,0.93
2022-11-08T04:53:36.733Z,1.05
2022-11-08T04:56:08.570Z,2.17
2022-11-08T04:58:36.939Z,1.23
2022-11-08T05:01:05.819Z,3.42
2022-11-08T05:03:32.615Z,1.10
2022-11-08T05:06:08.108Z,0.88
2022-11-08T05:08:34.865Z,1.05
2022-11-08T05:11:05.432Z,1.98
2022-11-08T05:13:32.075Z,1.42
2022-11-08T05:16:04.767Z,1.23
2022-11-08T05:18:32.557Z,0.73
2022-11-08T05:21:19.137Z,1.23
2022-11-08T05:23:47.694Z,1.10
2022-11-08T05:26:15.000Z,0.80
2022-11-08T05:28:41.521Z,0.87
2022-11-08T05:31:08.806Z,0.63
2022-11-08T05:33:35.546Z,0.80
2022-11-08T05:36:06.084Z,0.63
2022-11-08T05:38:33.697Z,1.08
2022-11-08T05:41:07.655Z,1.00
2022-11-08T05:43:34.325Z,0.60
2022-11-08T05:46:01.110Z,0.70
2022-11-08T05:48:27.996Z,0.90
2022-11-08T05:50:55.106Z,0.93
2022-11-08T05:53:21.896Z,1.00
2022-11-08T05:55:49.168Z,0.90
2022-11-08T05:58:16.221Z,1.02
2022-11-08T06:00:42.810Z,0.80
2022-11-08T06:03:09.546Z,1.38
2022-11-08T06:05:36.269Z,0.83
2022-11-08T06:08:02.826Z,0.80
2022-11-08T06:10:29.392Z,0.73
2022-11-08T06:13:00.865Z,0.95
2022-11-08T06:15:27.779Z,0.73
2022-11-08T06:17:54.219Z,0.83
2022-11-08T06:20:20.826Z,0.85
2022-11-08T06:22:47.846Z,0.77
2022-11-08T06:25:14.362Z,0.73
2022-11-08T06:27:41.047Z,1.10
2022-11-08T06:30:08.437Z,0.70
2022-11-08T06:32:35.039Z,0.57
2022-11-08T06:35:01.769Z,1.15
2022-11-08T06:37:28.292Z,0.70
2022-11-08T06:39:54.868Z,0.80
2022-11-08T06:42:21.424Z,0.60
2022-11-08T06:44:47.944Z,0.80
2022-11-08T06:47:14.926Z,1.25
2022-11-08T06:49:41.697Z,1.00
2022-11-08T06:52:08.368Z,1.25
2022-11-08T06:54:34.865Z,0.67
2022-11-08T06:57:02.176Z,0.98
2022-11-08T06:59:29.191Z,1.00
2022-11-08T07:01:55.883Z,0.90
2022-11-08T07:04:22.598Z,0.90
2022-11-08T07:06:49.080Z,1.50
2022-11-08T07:09:15.691Z,1.20
2022-11-08T07:11:42.267Z,1.10
2022-11-08T07:14:08.996Z,0.90
2022-11-08T07:16:35.404Z,1.83
2022-11-08T07:19:02.084Z,0.80
2022-11-08T07:21:28.573Z,1.02
2022-11-08T07:23:55.170Z,1.17
2022-11-08T07:26:21.829Z,0.70
2022-11-08T07:28:48.314Z,0.98
2022-11-08T07:31:14.938Z,0.70
2022-11-08T07:33:41.605Z,0.65
2022-11-08T07:36:08.308Z,1.10
2022-11-08T07:38:34.857Z,0.60
2022-11-08T07:41:02.348Z,1.00
2022-11-08T07:43:30.388Z,0.60
2022-11-08T07:45:59.582Z,0.98
2022-11-08T07:48:27.315Z,1.13
2022-11-08T07:50:59.173Z,0.90
2022-11-08T07:53:25.763Z,1.27
2022-11-08T07:55:53.275Z,0.93
2022-11-08T07:58:19.764Z,1.15
2022-11-08T08:00:46.679Z,1.23
2022-11-08T08:03:14.510Z,1.55
2022-11-08T08:05:43.407Z,1.30
2022-11-08T08:08:12.484Z,1.30
2022-11-08T08:10:39.266Z,1.00
2022-11-08T08:13:06.351Z,0.70
2022-11-08T08:15:33.322Z,1.85
2022-11-08T08:18:01.867Z,1.20
2022-11-08T08:20:29.674Z,0.90
2022-11-08T08:22:56.494Z,0.80
2022-11-08T08:25:23.500Z,0.73
2022-11-08T08:27:52.236Z,0.80
2022-11-08T08:30:22.007Z,0.93
2022-11-08T08:33:02.175Z,1.00
2022-11-08T08:35:36.748Z,0.85
2022-11-08T08:38:04.602Z,1.00
2022-11-08T08:40:31.827Z,1.17
2022-11-08T08:43:00.935Z,0.88
2022-11-08T08:45:28.403Z,0.70
2022-11-08T08:47:58.936Z,1.10
2022-11-08T08:50:27.954Z,1.00
2022-11-08T08:53:06.621Z,1.05
2022-11-08T08:55:37.110Z,2.58
2022-11-08T08:58:35.648Z,0.90
2022-11-08T09:03:55.476Z,1.08
2022-11-08T09:06:22.158Z,0.93
2022-11-08T09:08:49.083Z,1.00
2022-11-08T09:11:15.908Z,0.90
2022-11-08T09:13:42.695Z,0.95
2022-11-08T09:16:10.269Z,2.63
2022-11-08T09:18:37.038Z,1.00
2022-11-08T09:21:04.385Z,1.17
2022-11-08T09:23:31.327Z,0.90
2022-11-08T09:26:00.111Z,1.45
2022-11-08T09:28:31.178Z,1.13
2022-11-08T09:31:11.536Z,1.13
2022-11-08T09:33:39.407Z,1.25
2022-11-08T09:36:07.979Z,0.90
2022-11-08T09:38:34.667Z,0.80
2022-11-08T09:41:04.307Z,0.70
2022-11-08T09:43:47.582Z,0.98
2022-11-08T09:46:25.089Z,1.48
2022-11-08T09:48:53.776Z,0.77
2022-11-08T09:51:23.084Z,0.80
2022-11-08T09:53:52.586Z,0.90
2022-11-08T09:56:23.557Z,0.90
2022-11-08T09:58:54.659Z,1.30
2022-11-08T10:01:26.934Z,0.90
2022-11-08T10:03:57.694Z,0.73
2022-11-08T10:06:42.818Z,1.67
2022-11-08T10:09:15.513Z,0.75
2022-11-08T10:11:48.080Z,1.50
2022-11-08T10:14:50.548Z,1.00
2022-11-08T10:17:44.835Z,1.00
2022-11-08T10:20:14.074Z,1.27
2022-11-08T10:22:59.239Z,0.85
2022-11-08T10:25:33.259Z,1.00
2022-11-08T10:28:02.256Z,1.00
2022-11-08T10:30:38.705Z,0.82
2022-11-08T10:33:23.389Z,0.82
2022-11-08T10:36:06.303Z,0.75
2022-11-08T10:38:39.656Z,0.80
2022-11-08T10:41:22.067Z,1.40
2022-11-08T10:44:11.525Z,0.98
2022-11-08T10:46:45.622Z,0.85
2022-11-08T10:49:16.612Z,0.80
2022-11-08T10:51:46.015Z,0.63
2022-11-08T10:54:40.779Z,0.60
2022-11-08T10:57:08.529Z,0.60
2022-11-08T10:59:35.183Z,0.80
2022-11-08T11:02:02.296Z,1.05
2022-11-08T11:04:34.805Z,0.68
2022-11-08T11:07:03.053Z,1.17
2022-11-08T11:09:32.802Z,0.90
2022-11-08T11:12:06.644Z,0.70
2022-11-08T11:14:33.208Z,0.82
2022-11-08T11:17:15.724Z,1.15
2022-11-08T11:19:53.423Z,1.30
2022-11-08T11:22:30.710Z,1.25
2022-11-08T11:25:03.166Z,0.90
2022-11-08T11:27:33.843Z,0.75
2022-11-08T11:30:16.487Z,0.80
2022-11-08T11:32:56.360Z,0.80
2022-11-08T11:35:24.656Z,1.00
2022-11-08T11:37:52.413Z,0.80
2022-11-08T11:40:34.188Z,0.80
2022-11-08T11:43:15.334Z,0.73
2022-11-08T11:45:55.951Z,0.90
2022-11-08T11:48:27.885Z,0.68
2022-11-08T11:50:54.791Z,0.75
2022-11-08T11:53:26.950Z,0.73
2022-11-08T11:56:12.416Z,0.93
2022-11-08T11:59:02.049Z,0.70
2022-11-08T12:01:47.572Z,1.13
2022-11-08T12:04:42.113Z,1.48
2022-11-08T12:07:28.194Z,1.00
2022-11-08T12:10:28.838Z,1.02
2022-11-08T12:13:11.341Z,0.63
2022-11-08T12:15:56.126Z,1.17
2022-11-08T12:18:43.690Z,0.85
2022-11-08T12:21:22.888Z,0.85
2022-11-08T12:23:54.729Z,1.55
2022-11-08T12:26:55.870Z,0.90
2022-11-08T12:29:53.550Z,0.88
2022-11-08T12:32:33.748Z,0.63
2022-11-08T12:35:12.129Z,0.70
2022-11-08T12:37:44.767Z,1.05
2022-11-08T12:40:14.105Z,0.73
2022-11-08T12:43:04.918Z,0.90
2022-11-08T12:45:51.500Z,0.55
2022-11-08T12:48:54.787Z,0.82
2022-11-08T12:51:29.984Z,0.90
2022-11-08T12:54:03.962Z,0.90
2022-11-08T12:56:41.313Z,0.90
2022-11-08T12:59:20.109Z,0.60
2022-11-08T13:01:47.474Z,0.70
2022-11-08T13:04:28.958Z,0.70
2022-11-08T13:07:17.094Z,1.00
2022-11-08T13:10:00.791Z,0.80
2022-11-08T13:12:46.609Z,0.98
2022-11-08T13:15:21.312Z,0.70
2022-11-08T13:18:06.207Z,0.80
2022-11-08T13:20:43.405Z,0.43
2022-11-08T13:23:27.444Z,1.38
2022-11-08T13:25:54.995Z,0.95
2022-11-08T13:28:45.960Z,0.93
2022-11-08T13:31:20.860Z,0.75
2022-11-08T13:34:10.634Z,1.03
2022-11-08T13:36:51.040Z,0.88
2022-11-08T13:39:49.664Z,0.88
2022-11-08T13:42:17.956Z,1.08
2022-11-08T13:45:00.114Z,0.65
2022-11-08T13:47:32.842Z,0.80
2022-11-08T13:50:33.903Z,0.60
2022-11-08T13:53:03.579Z,0.80
2022-11-08T13:56:15.803Z,0.50
2022-11-08T13:58:45.910Z,0.60
2022-11-08T14:01:18.602Z,0.50
2022-11-08T14:03:48.133Z,0.90
2022-11-08T14:06:40.231Z,0.88
2022-11-08T14:09:33.544Z,0.65
2022-11-08T14:12:02.892Z,0.70
2022-11-08T14:14:38.495Z,1.30
2022-11-08T14:17:23.079Z,1.08
2022-11-08T14:19:51.899Z,1.17
2022-11-08T14:22:24.960Z,0.88
2022-11-08T14:24:54.696Z,0.70
2022-11-08T14:27:37.795Z,0.90
2022-11-08T14:30:13.515Z,1.60
2022-11-08T14:32:40.189Z,0.60
2022-11-08T14:35:20.546Z,0.63
2022-11-08T14:37:47.908Z,0.90
2022-11-08T14:40:24.187Z,0.90
2022-11-08T14:42:51.804Z,0.70
2022-11-08T14:45:25.719Z,0.80
2022-11-08T14:47:58.948Z,1.10
2022-11-08T14:50:30.899Z,0.68
2022-11-08T14:53:23.148Z,0.60
2022-11-08T14:56:03.244Z,0.60
2022-11-08T14:58:30.423Z,0.90
2022-11-08T15:00:59.839Z,0.60
2022-11-08T15:03:30.449Z,1.00
2022-11-08T15:06:01.672Z,1.03
2022-11-08T15:08:33.121Z,0.65
2022-11-08T15:11:07.036Z,0.70
2022-11-08T15:13:41.387Z,0.85
2022-11-08T15:16:37.716Z,0.70
2022-11-08T15:19:32.499Z,0.93
2022-11-08T15:22:01.973Z,1.25
2022-11-08T15:24:40.043Z,0.90
2022-11-08T15:27:12.748Z,1.55
2022-11-08T15:30:02.369Z,0.98
2022-11-08T15:32:37.383Z,0.87
2022-11-08T15:35:05.369Z,0.85
2022-11-08T15:37:37.823Z,0.90
2022-11-08T15:40:16.163Z,0.70
2022-11-08T15:42:48.795Z,0.80
2022-11-08T15:45:18.300Z,0.70
2022-11-08T15:47:47.048Z,0.90
2022-11-08T15:50:32.041Z,0.73
2022-11-08T15:53:02.233Z,1.10
2022-11-08T15:55:32.061Z,0.65
2022-11-08T15:57:59.901Z,0.70
2022-11-08T16:00:29.504Z,1.05
2022-11-08T16:02:56.113Z,0.80
2022-11-08T16:05:28.442Z,1.17
2022-11-08T16:07:55.835Z,1.20
2022-11-08T16:10:30.417Z,0.93
2022-11-08T16:13:00.791Z,1.17
2022-11-08T16:15:31.190Z,1.13
2022-11-08T16:17:58.101Z,0.90
2022-11-08T16:20:24.913Z,0.90
2022-11-08T16:22:51.782Z,0.83
2022-11-08T16:25:18.505Z,1.05
2022-11-08T16:27:50.927Z,0.82
2022-11-08T16:30:17.595Z,0.98
2022-11-08T16:32:44.119Z,0.88
2022-11-08T16:35:10.936Z,0.87
2022-11-08T16:37:38.482Z,0.98
2022-11-08T16:40:20.086Z,0.85
2022-11-08T16:42:48.420Z,0.63
2022-11-08T16:45:17.138Z,0.98
2022-11-08T16:47:47.730Z,1.20
2022-11-08T16:50:20.031Z,0.82
2022-11-08T16:52:46.726Z,0.60
2022-11-08T16:55:18.486Z,1.25
2022-11-08T16:57:45.695Z,0.70
2022-11-08T17:00:15.817Z,0.90
2022-11-08T17:02:46.594Z,1.05
2022-11-08T17:05:21.980Z,1.15
2022-11-08T17:07:51.072Z,0.70
2022-11-08T17:10:20.668Z,1.08
2022-11-08T17:12:47.942Z,0.90
2022-11-08T17:15:16.654Z,0.80
2022-11-08T17:17:43.507Z,1.55
2022-11-08T17:20:13.535Z,1.45
2022-11-08T17:22:41.375Z,1.10
2022-11-08T17:25:09.288Z,1.00
2022-11-08T17:27:35.894Z,0.90
2022-11-08T17:30:02.891Z,1.10
2022-11-08T17:32:29.522Z,1.05
2022-11-08T17:34:56.005Z,1.38
2022-11-08T17:37:23.583Z,1.13
2022-11-08T17:39:50.394Z,0.98
2022-11-08T17:42:17.731Z,1.08
2022-11-08T17:44:44.305Z,0.77
2022-11-08T17:47:10.780Z,1.00
2022-11-08T17:49:42.739Z,0.87
2022-11-08T17:52:11.706Z,0.88
2022-11-08T17:54:38.473Z,1.20
2022-11-08T17:57:04.927Z,1.05
2022-11-08T17:59:31.443Z,1.08
2022-11-08T18:01:58.024Z,1.07
2022-11-08T18:04:24.498Z,0.80
2022-11-08T18:06:51.325Z,0.98
2022-11-08T18:09:18.611Z,1.17
2022-11-08T18:11:48.015Z,0.80
2022-11-08T18:14:16.095Z,1.10
2022-11-08T18:16:42.632Z,1.00
2022-11-08T18:19:09.740Z,1.45
2022-11-08T18:21:36.378Z,1.08
2022-11-08T18:24:03.819Z,0.90
2022-11-08T18:26:30.568Z,1.13
2022-11-08T18:28:57.266Z,0.85
2022-11-08T18:31:24.489Z,1.05
2022-11-08T18:33:50.980Z,1.10
2022-11-08T18:36:21.543Z,0.88
2022-11-08T18:38:49.494Z,0.90
2022-11-08T18:41:20.307Z,0.68
2022-11-08T18:43:46.957Z,0.90
2022-11-08T18:46:15.989Z,1.10
2022-11-08T18:48:43.152Z,1.20
2022-11-08T18:51:12.505Z,0.87
2022-11-08T18:53:40.270Z,1.10
2022-11-08T18:56:07.795Z,1.20
2022-11-08T18:58:35.060Z,1.10
2022-11-08T19:01:01.963Z,1.30
2022-11-08T19:03:29.200Z,1.00
2022-11-08T19:05:56.004Z,1.02
2022-11-08T19:08:25.204Z,0.85
2022-11-08T19:11:00.376Z,0.90
2022-11-08T19:13:29.033Z,1.50
2022-11-08T19:16:02.273Z,1.03
2022-11-08T19:18:29.567Z,0.98
2022-11-08T19:21:05.635Z,1.10
2022-11-08T19:23:32.670Z,1.30
2022-11-08T19:26:01.996Z,1.02
2022-11-08T19:28:33.053Z,0.60
2022-11-08T19:30:59.953Z,1.88
2022-11-08T19:33:28.464Z,1.35
2022-11-08T19:35:59.388Z,1.00
2022-11-08T19:38:25.953Z,1.50
2022-11-08T19:40:52.567Z,0.87
2022-11-08T19:43:19.580Z,0.85
2022-11-08T19:45:53.309Z,0.90
2022-11-08T19:48:20.837Z,1.30
2022-11-08T19:50:47.852Z,1.10
2022-11-08T19:53:14.652Z,1.20
2022-11-08T19:55:41.163Z,1.02
2022-11-08T19:58:07.884Z,1.42
2022-11-08T20:00:34.547Z,2.08
2022-11-08T20:03:01.604Z,1.17
2022-11-08T20:05:28.302Z,1.17
2022-11-08T20:07:54.813Z,1.00
2022-11-08T20:10:21.327Z,1.25
2022-11-08T20:12:47.810Z,1.00
2022-11-08T20:15:14.283Z,0.73
2022-11-08T20:17:40.989Z,0.93
2022-11-08T20:20:08.002Z,0.88
2022-11-08T20:22:34.745Z,1.08
2022-11-08T20:25:01.275Z,1.20
2022-11-08T20:27:27.691Z,0.93
2022-11-08T20:29:54.197Z,0.80
2022-11-08T20:32:20.839Z,0.82
2022-11-08T20:34:47.490Z,1.13
2022-11-08T20:37:14.839Z,1.00
2022-11-08T20:39:41.522Z,1.13
2022-11-08T20:42:08.203Z,1.17
2022-11-08T20:44:34.915Z,0.90
2022-11-08T20:47:06.327Z,1.45
2022-11-08T20:49:33.433Z,0.88
2022-11-08T20:52:00.113Z,0.50
2022-11-08T20:54:26.652Z,0.63
2022-11-08T20:56:53.192Z,0.90
2022-11-08T20:59:19.724Z,0.85
2022-11-08T21:01:46.454Z,1.20
2022-11-08T21:04:13.422Z,0.95
2022-11-08T21:06:39.989Z,1.10
2022-11-08T21:09:32.794Z,1.05
2022-11-08T21:11:53.702Z,1.10
2022-11-08T21:14:20.289Z,1.35
2022-11-08T21:17:15.089Z,1.10
2022-11-08T21:19:33.187Z,1.20
2022-11-08T21:22:15.191Z,1.08
2022-11-08T21:24:43.223Z,1.73
2022-11-08T21:27:10.532Z,1.42
2022-11-08T21:29:37.462Z,1.40
2022-11-08T21:32:04.832Z,1.10
2022-11-08T21:34:32.727Z,1.08
2022-11-08T21:37:00.052Z,1.00
2022-11-08T21:39:26.819Z,1.30
2022-11-08T21:41:53.423Z,1.27
2022-11-08T21:44:20.583Z,1.10
2022-11-08T21:46:47.454Z,1.48
2022-11-08T21:49:14.056Z,1.20
2022-11-08T21:51:40.813Z,0.98
2022-11-08T21:54:07.471Z,1.00
2022-11-08T21:56:34.949Z,1.30
2022-11-08T21:59:02.055Z,0.85
2022-11-08T22:01:30.771Z,1.60
2022-11-08T22:03:58.830Z,1.23
2022-11-08T22:06:26.079Z,1.30
2022-11-08T22:08:52.693Z,1.00
2022-11-08T22:11:19.223Z,1.10
2022-11-08T22:13:45.810Z,1.00
2022-11-08T22:16:12.531Z,0.90
2022-11-08T22:21:37.787Z,0.83
2022-11-08T22:24:10.773Z,1.00
2022-11-08T22:26:37.975Z,1.00
2022-11-08T22:29:04.844Z,1.10
2022-11-08T22:31:31.691Z,0.95
2022-11-08T22:33:58.457Z,1.10
2022-11-08T22:36:25.112Z,0.82
2022-11-08T22:38:51.682Z,0.95
2022-11-08T22:41:20.138Z,0.95
2022-11-08T22:43:47.120Z,1.20
2022-11-08T22:46:14.326Z,0.97
2022-11-08T22:48:41.228Z,0.95
2022-11-08T22:51:08.427Z,1.00
2022-11-08T22:53:35.118Z,1.25
2022-11-08T22:56:04.539Z,1.30
2022-11-08T22:58:35.243Z,1.33
2022-11-08T23:01:02.022Z,1.33
2022-11-08T23:03:28.612Z,1.10
2022-11-08T23:05:56.899Z,0.85
2022-11-08T23:08:25.883Z,1.33
2022-11-08T23:11:11.404Z,0.70
2022-11-08T23:13:57.022Z,1.40
2022-11-08T23:16:37.594Z,1.40
2022-11-08T23:19:27.019Z,1.35
2022-11-08T23:22:13.653Z,2.30
2022-11-08T23:24:42.363Z,1.80
2022-11-08T23:27:29.239Z,1.15
2022-11-08T23:30:14.602Z,1.50
2022-11-08T23:32:43.808Z,0.98
2022-11-08T23:35:11.325Z,1.25
2022-11-08T23:37:37.958Z,1.27
2022-11-08T23:40:25.619Z,1.50
2022-11-08T23:43:31.213Z,1.50
2022-11-08T23:45:58.700Z,1.08
2022-11-08T23:48:26.990Z,1.10
2022-11-08T23:50:54.680Z,0.97
2022-11-08T23:53:25.135Z,0.88
2022-11-08T23:55:52.807Z,1.08
2022-11-08T23:58:20.368Z,0.90
